createdAt,value
2023-06-17T00:00:40.629Z,8.99
2023-06-17T00:03:14.045Z,8.76
2023-06-17T00:05:46.808Z,9.14
2023-06-17T00:08:19.085Z,8.86
2023-06-17T00:10:51.441Z,8.49
2023-06-17T00:13:26.766Z,7.92
2023-06-17T00:16:00.524Z,8.38
2023-06-17T00:18:34.017Z,8.19
2023-06-17T00:21:06.182Z,8.31
2023-06-17T00:23:38.430Z,8.19
2023-06-17T00:26:11.081Z,8.16
2023-06-17T00:28:45.904Z,8.14
2023-06-17T00:31:18.204Z,7.32
2023-06-17T00:33:50.419Z,7.88
2023-06-17T00:36:22.845Z,7.71
2023-06-17T00:38:55.168Z,7.58
2023-06-17T00:41:27.611Z,7.51
2023-06-17T00:44:02.542Z,7.86
2023-06-17T00:46:41.958Z,7.87
2023-06-17T00:49:15.037Z,8.29
2023-06-17T00:52:00.129Z,8.41
2023-06-17T00:54:37.784Z,8.40
2023-06-17T00:57:14.829Z,8.29
2023-06-17T00:59:50.498Z,7.93
2023-06-17T01:02:27.227Z,8.05
2023-06-17T01:04:59.849Z,8.61
2023-06-17T01:07:41.594Z,8.24
2023-06-17T01:10:26.078Z,9.29
2023-06-17T01:13:01.644Z,10.13
2023-06-17T01:15:38.376Z,9.06
2023-06-17T01:18:11.226Z,9.15
2023-06-17T01:20:45.007Z,8.37
2023-06-17T01:23:19.334Z,8.50
2023-06-17T01:25:59.278Z,8.92
2023-06-17T01:28:31.509Z,8.24
2023-06-17T01:31:04.017Z,9.10
2023-06-17T01:33:37.426Z,8.91
2023-06-17T01:36:19.039Z,8.69
2023-06-17T01:38:55.611Z,9.12
2023-06-17T01:41:44.213Z,9.18
2023-06-17T01:44:19.848Z,8.99
2023-06-17T01:46:52.229Z,9.11
2023-06-17T01:49:24.510Z,9.31
2023-06-17T01:51:56.791Z,9.29
2023-06-17T01:54:29.168Z,9.89
2023-06-17T01:57:04.736Z,9.69
2023-06-17T01:59:37.318Z,9.67
2023-06-17T02:02:10.057Z,9.79
2023-06-17T02:04:42.602Z,10.03
2023-06-17T02:07:14.916Z,9.92
2023-06-17T02:09:47.363Z,9.39
2023-06-17T02:12:22.280Z,9.69
2023-06-17T02:14:54.502Z,9.55
2023-06-17T02:17:29.100Z,9.73
2023-06-17T02:20:01.509Z,9.72
2023-06-17T02:22:33.812Z,9.57
2023-06-17T02:25:06.625Z,9.34
2023-06-17T02:27:41.736Z,10.23
2023-06-17T02:30:16.682Z,9.90
2023-06-17T02:32:49.042Z,9.53
2023-06-17T02:35:21.619Z,10.00
2023-06-17T02:37:56.936Z,10.12
2023-06-17T02:40:29.152Z,10.09
2023-06-17T02:43:03.980Z,9.52
2023-06-17T02:45:36.229Z,9.71
2023-06-17T02:48:08.754Z,9.77
2023-06-17T02:50:41.661Z,10.18
2023-06-17T02:53:13.842Z,10.06
2023-06-17T02:55:48.055Z,10.04
2023-06-17T02:58:22.930Z,10.61
2023-06-17T03:00:55.614Z,10.69
2023-06-17T03:03:35.537Z,10.21
2023-06-17T03:06:10.628Z,10.46
2023-06-17T03:08:44.962Z,10.21
2023-06-17T03:11:17.220Z,10.24
2023-06-17T03:13:52.033Z,9.73
2023-06-17T03:16:24.529Z,9.94
2023-06-17T03:18:56.768Z,9.85
2023-06-17T03:21:30.819Z,10.13
2023-06-17T03:24:04.103Z,10.49
2023-06-17T03:26:36.520Z,10.97
2023-06-17T03:29:11.703Z,11.05
2023-06-17T03:31:43.924Z,10.62
2023-06-17T03:34:16.388Z,10.83
2023-06-17T03:36:48.878Z,11.06
2023-06-17T03:39:21.203Z,10.69
2023-06-17T03:41:53.498Z,10.99
2023-06-17T03:44:28.332Z,10.19
2023-06-17T03:47:02.139Z,10.76
2023-06-17T03:49:34.415Z,10.86
2023-06-17T03:52:06.700Z,10.94
2023-06-17T03:54:40.593Z,12.06
2023-06-17T03:57:12.982Z,12.48
2023-06-17T03:59:47.746Z,12.69
2023-06-17T04:02:20.093Z,12.01
2023-06-17T04:04:53.942Z,12.69
2023-06-17T04:07:26.453Z,12.71
2023-06-17T04:10:07.278Z,12.81
2023-06-17T04:12:50.983Z,13.24
2023-06-17T04:15:25.871Z,13.41
2023-06-17T04:17:58.479Z,13.18
2023-06-17T04:20:31.225Z,12.95
2023-06-17T04:23:03.463Z,13.62
2023-06-17T04:25:38.390Z,13.59
2023-06-17T04:28:14.368Z,12.87
2023-06-17T04:30:49.571Z,14.17
2023-06-17T04:33:21.918Z,13.69
2023-06-17T04:35:55.157Z,13.44
2023-06-17T04:38:27.470Z,12.42
2023-06-17T04:40:59.726Z,12.59
2023-06-17T04:43:34.309Z,13.26
2023-06-17T04:46:09.964Z,13.54
2023-06-17T04:48:43.621Z,13.19
2023-06-17T04:51:19.078Z,12.51
2023-06-17T04:53:51.961Z,12.73
2023-06-17T04:56:28.232Z,13.39
2023-06-17T04:59:00.698Z,13.59
2023-06-17T05:01:35.554Z,14.06
2023-06-17T05:04:08.957Z,14.12
2023-06-17T05:06:41.347Z,14.21
2023-06-17T05:09:13.685Z,13.56
2023-06-17T05:11:46.395Z,14.19
2023-06-17T05:14:18.688Z,13.97
2023-06-17T05:16:53.619Z,13.42
2023-06-17T05:19:25.970Z,13.60
2023-06-17T05:21:58.218Z,13.96
2023-06-17T05:24:30.835Z,13.82
2023-06-17T05:27:03.192Z,13.13
2023-06-17T05:29:38.305Z,13.19
2023-06-17T05:32:14.716Z,13.41
2023-06-17T05:34:47.022Z,12.61
2023-06-17T05:37:19.441Z,13.01
2023-06-17T05:39:51.691Z,13.14
2023-06-17T05:42:23.982Z,12.51
2023-06-17T05:44:56.490Z,12.88
2023-06-17T05:47:31.477Z,12.71
2023-06-17T05:50:03.727Z,13.41
2023-06-17T05:52:35.969Z,12.11
2023-06-17T05:55:08.629Z,12.10
2023-06-17T05:57:41.060Z,11.60
2023-06-17T06:00:14.969Z,11.24
2023-06-17T06:02:49.817Z,10.44
2023-06-17T06:05:22.307Z,9.57
2023-06-17T06:07:54.541Z,9.44
2023-06-17T06:10:28.791Z,9.36
2023-06-17T06:13:01.013Z,9.21
2023-06-17T06:15:33.820Z,9.04
2023-06-17T06:18:09.007Z,8.79
2023-06-17T06:20:41.378Z,8.51
2023-06-17T06:23:13.583Z,8.17
2023-06-17T06:25:45.942Z,7.96
2023-06-17T06:28:18.186Z,7.79
2023-06-17T06:30:50.692Z,7.86
2023-06-17T06:33:25.888Z,7.85
2023-06-17T06:35:58.292Z,7.71
2023-06-17T06:38:30.449Z,7.93
2023-06-17T06:41:02.676Z,7.39
2023-06-17T06:43:35.192Z,7.55
2023-06-17T06:46:08.607Z,7.27
2023-06-17T06:48:43.452Z,7.35
2023-06-17T06:51:15.743Z,7.21
2023-06-17T06:53:48.282Z,7.44
2023-06-17T06:56:20.587Z,6.84
2023-06-17T06:58:52.829Z,7.02
2023-06-17T07:01:25.056Z,6.91
2023-06-17T07:03:59.874Z,7.10
2023-06-17T07:06:32.172Z,7.29
2023-06-17T07:09:07.643Z,6.82
2023-06-17T07:11:39.950Z,7.06
2023-06-17T07:14:12.312Z,7.17
2023-06-17T07:16:44.707Z,7.06
2023-06-17T07:19:19.626Z,6.74
2023-06-17T07:21:52.709Z,6.61
2023-06-17T07:24:25.026Z,6.49
2023-06-17T07:26:57.443Z,6.96
2023-06-17T07:29:29.716Z,6.57
2023-06-17T07:32:02.018Z,6.12
2023-06-17T07:34:36.789Z,6.14
2023-06-17T07:37:09.650Z,6.34
2023-06-17T07:39:41.782Z,6.19
2023-06-17T07:42:14.033Z,6.63
2023-06-17T07:44:46.167Z,6.67
2023-06-17T07:47:18.416Z,6.14
2023-06-17T07:49:53.242Z,6.30
2023-06-17T07:52:25.484Z,6.08
2023-06-17T07:54:57.999Z,6.26
2023-06-17T07:57:30.229Z,6.01
2023-06-17T08:00:02.641Z,6.11
2023-06-17T08:02:34.912Z,6.31
2023-06-17T08:05:10.770Z,6.24
2023-06-17T08:07:43.231Z,5.87
2023-06-17T08:10:15.475Z,5.56
2023-06-17T08:12:48.361Z,6.11
2023-06-17T08:15:21.007Z,5.79
2023-06-17T08:17:54.304Z,5.88
2023-06-17T08:20:29.847Z,5.71
2023-06-17T08:23:02.330Z,6.13
2023-06-17T08:25:34.898Z,5.71
2023-06-17T08:28:07.529Z,5.64
2023-06-17T08:30:39.765Z,5.94
2023-06-17T08:33:12.066Z,5.74
2023-06-17T08:35:46.996Z,5.49
2023-06-17T08:38:19.352Z,6.07
2023-06-17T08:40:51.702Z,6.12
2023-06-17T08:43:27.031Z,6.14
2023-06-17T08:46:02.533Z,6.20
2023-06-17T08:48:36.669Z,6.59
2023-06-17T08:51:13.745Z,6.44
2023-06-17T08:53:48.992Z,6.57
2023-06-17T08:56:21.383Z,6.64
2023-06-17T08:58:55.714Z,6.21
2023-06-17T09:01:29.462Z,6.19
2023-06-17T09:04:03.094Z,6.41
2023-06-17T09:06:38.019Z,6.54
2023-06-17T09:09:10.387Z,7.54
2023-06-17T09:11:45.646Z,6.81
2023-06-17T09:14:17.950Z,6.53
2023-06-17T09:16:50.792Z,6.88
2023-06-17T09:19:23.183Z,6.56
2023-06-17T09:21:59.772Z,6.63
2023-06-17T09:24:34.690Z,6.46
2023-06-17T09:27:07.743Z,7.09
2023-06-17T09:29:39.987Z,6.40
2023-06-17T09:32:12.398Z,6.29
2023-06-17T09:34:53.264Z,6.52
2023-06-17T09:37:28.258Z,6.79
2023-06-17T09:40:07.170Z,6.45
2023-06-17T09:42:39.644Z,6.31
2023-06-17T09:45:14.362Z,6.89
2023-06-17T09:47:46.827Z,6.59
2023-06-17T09:50:19.516Z,6.59
2023-06-17T09:52:55.884Z,6.49
2023-06-17T09:55:28.747Z,6.74
2023-06-17T09:58:03.053Z,6.48
2023-06-17T10:00:36.691Z,6.59
2023-06-17T10:03:08.981Z,6.35
2023-06-17T10:05:41.675Z,6.60
2023-06-17T10:08:17.310Z,6.67
2023-06-17T10:10:50.572Z,6.36
2023-06-17T10:13:26.731Z,6.51
2023-06-17T10:16:02.862Z,6.54
2023-06-17T10:18:38.761Z,6.72
2023-06-17T10:21:15.392Z,6.60
2023-06-17T10:23:51.911Z,6.71
2023-06-17T10:26:25.368Z,6.62
2023-06-17T10:29:08.219Z,6.55
2023-06-17T10:31:44.231Z,6.42
2023-06-17T10:34:21.537Z,6.33
2023-06-17T10:36:55.252Z,6.54
2023-06-17T10:39:30.643Z,6.47
2023-06-17T10:42:06.162Z,6.23
2023-06-17T10:44:48.854Z,6.19
2023-06-17T10:47:27.169Z,6.24
2023-06-17T10:50:01.927Z,6.61
2023-06-17T10:52:34.786Z,6.54
2023-06-17T10:55:10.183Z,6.53
2023-06-17T10:57:42.538Z,6.52
2023-06-17T11:00:15.688Z,6.34
2023-06-17T11:02:48.870Z,5.98
2023-06-17T11:05:21.491Z,6.35
2023-06-17T11:07:54.004Z,6.64
2023-06-17T11:10:32.595Z,6.09
2023-06-17T11:13:05.960Z,6.19
2023-06-17T11:15:38.129Z,6.67
2023-06-17T11:18:10.514Z,5.94
2023-06-17T11:20:42.864Z,6.54
2023-06-17T11:23:16.331Z,6.47
2023-06-17T11:25:54.684Z,6.14
2023-06-17T11:28:27.066Z,6.39
2023-06-17T11:31:01.008Z,6.25
2023-06-17T11:33:36.192Z,6.28
2023-06-17T11:36:15.227Z,6.28
2023-06-17T11:38:50.130Z,6.47
2023-06-17T11:41:25.261Z,6.22
2023-06-17T11:43:59.643Z,6.36
2023-06-17T11:46:32.068Z,6.13
2023-06-17T11:49:04.389Z,6.36
2023-06-17T11:51:36.612Z,6.21
2023-06-17T11:54:10.572Z,6.51
2023-06-17T11:56:45.899Z,6.54
2023-06-17T11:59:19.109Z,6.14
2023-06-17T12:01:53.218Z,6.03
2023-06-17T12:04:25.772Z,6.39
2023-06-17T12:06:58.308Z,5.93
2023-06-17T12:09:31.140Z,6.26
2023-06-17T12:12:05.976Z,6.33
2023-06-17T12:14:42.813Z,6.24
2023-06-17T12:17:23.461Z,6.08
2023-06-17T12:19:55.774Z,6.10
2023-06-17T12:22:28.071Z,6.46
2023-06-17T12:25:00.283Z,6.44
2023-06-17T12:27:36.128Z,6.23
2023-06-17T12:30:09.522Z,6.20
2023-06-17T12:32:44.579Z,6.57
2023-06-17T12:35:17.857Z,6.33
2023-06-17T12:37:55.884Z,6.15
2023-06-17T12:40:29.266Z,6.23
2023-06-17T12:43:04.153Z,6.76
2023-06-17T12:45:36.500Z,6.61
2023-06-17T12:48:09.092Z,6.34
2023-06-17T12:50:42.136Z,6.46
2023-06-17T12:53:14.603Z,6.26
2023-06-17T12:55:46.929Z,6.55
2023-06-17T12:58:21.828Z,6.29
2023-06-17T13:00:54.144Z,6.45
2023-06-17T13:03:26.779Z,6.39
2023-06-17T13:05:59.630Z,6.41
2023-06-17T13:08:31.931Z,6.63
2023-06-17T13:11:04.814Z,6.71
2023-06-17T13:13:39.635Z,6.23
2023-06-17T13:16:12.487Z,6.34
2023-06-17T13:18:44.699Z,6.44
2023-06-17T13:21:16.995Z,6.15
2023-06-17T13:23:49.628Z,6.24
2023-06-17T13:26:23.625Z,6.04
2023-06-17T13:28:58.459Z,6.01
2023-06-17T13:31:30.914Z,6.34
2023-06-17T13:34:03.306Z,6.20
2023-06-17T13:36:36.970Z,6.10
2023-06-17T13:39:09.920Z,6.24
2023-06-17T13:41:42.346Z,6.18
2023-06-17T13:44:17.897Z,6.04
2023-06-17T13:46:50.477Z,5.81
2023-06-17T13:49:23.185Z,6.13
2023-06-17T13:51:55.543Z,6.29
2023-06-17T13:54:28.413Z,6.04
2023-06-17T13:57:00.906Z,6.02
2023-06-17T13:59:36.257Z,6.00
2023-06-17T14:02:08.806Z,5.76
2023-06-17T14:04:41.311Z,6.19
2023-06-17T14:07:13.638Z,6.00
2023-06-17T14:09:46.131Z,6.14
2023-06-17T14:12:18.347Z,5.69
2023-06-17T14:14:53.703Z,5.78
2023-06-17T14:17:28.347Z,6.04
2023-06-17T14:20:00.869Z,5.81
2023-06-17T14:22:33.074Z,5.66
2023-06-17T14:25:05.326Z,5.79
2023-06-17T14:27:44.739Z,5.71
2023-06-17T14:30:20.524Z,5.91
2023-06-17T14:32:53.676Z,5.60
2023-06-17T14:35:26.168Z,5.76
2023-06-17T14:37:58.350Z,5.76
2023-06-17T14:40:30.564Z,5.96
2023-06-17T14:43:03.763Z,6.01
2023-06-17T14:45:38.757Z,5.78
2023-06-17T14:48:11.207Z,6.07
2023-06-17T14:50:43.591Z,5.94
2023-06-17T14:53:15.736Z,6.11
2023-06-17T14:56:06.628Z,5.91
2023-06-17T14:58:38.862Z,6.09
2023-06-17T15:01:13.671Z,6.03
2023-06-17T15:03:45.984Z,6.01
2023-06-17T15:06:18.363Z,6.02
2023-06-17T15:08:50.626Z,6.64
2023-06-17T15:11:22.871Z,6.03
2023-06-17T15:13:55.102Z,5.95
2023-06-17T15:16:30.119Z,5.86
2023-06-17T15:19:02.302Z,5.86
2023-06-17T15:21:34.556Z,5.76
2023-06-17T15:24:07.875Z,5.64
2023-06-17T15:26:40.416Z,5.22
2023-06-17T15:29:12.623Z,5.41
2023-06-17T15:31:48.129Z,5.40
2023-06-17T15:34:20.346Z,5.28
2023-06-17T15:36:55.074Z,5.21
2023-06-17T15:39:29.326Z,5.34
2023-06-17T15:42:01.617Z,4.96
2023-06-17T15:44:34.133Z,5.34
2023-06-17T15:47:09.734Z,5.42
2023-06-17T15:49:42.233Z,5.59
2023-06-17T15:52:14.429Z,5.66
2023-06-17T15:54:46.857Z,5.90
2023-06-17T15:57:20.206Z,5.67
2023-06-17T15:59:52.473Z,6.26
2023-06-17T16:02:27.304Z,5.78
2023-06-17T16:04:59.559Z,5.86
2023-06-17T16:07:33.143Z,6.06
2023-06-17T16:10:05.492Z,6.38
2023-06-17T16:12:38.776Z,6.61
2023-06-17T16:15:11.954Z,6.35
2023-06-17T16:17:46.862Z,6.75
2023-06-17T16:20:19.226Z,6.77
2023-06-17T16:22:51.550Z,6.56
2023-06-17T16:25:23.762Z,6.51
2023-06-17T16:27:56.173Z,6.60
2023-06-17T16:30:28.537Z,7.24
2023-06-17T16:33:03.344Z,7.21
2023-06-17T16:35:35.903Z,6.74
2023-06-17T16:38:08.137Z,6.30
2023-06-17T16:40:40.406Z,6.93
2023-06-17T16:43:12.663Z,6.59
2023-06-17T16:45:45.151Z,6.54
2023-06-17T16:48:20.035Z,6.96
2023-06-17T16:50:52.236Z,9.49
2023-06-17T16:53:24.930Z,9.41
2023-06-17T16:55:57.154Z,6.81
2023-06-17T16:58:29.430Z,6.74
2023-06-17T17:01:01.852Z,7.27
2023-06-17T17:03:39.996Z,7.20
2023-06-17T17:06:12.856Z,6.53
2023-06-17T17:08:45.230Z,6.40
2023-06-17T17:11:17.462Z,6.26
2023-06-17T17:13:50.163Z,6.28
2023-06-17T17:16:23.409Z,6.29
2023-06-17T17:18:58.317Z,6.46
2023-06-17T17:21:30.652Z,6.29
2023-06-17T17:24:05.776Z,6.01
2023-06-17T17:26:38.681Z,6.53
2023-06-17T17:29:11.065Z,6.78
2023-06-17T17:31:43.477Z,6.61
2023-06-17T17:34:18.355Z,6.79
2023-06-17T17:36:50.746Z,6.94
2023-06-17T17:39:22.895Z,6.81
2023-06-17T17:41:55.310Z,6.91
2023-06-17T17:44:27.504Z,7.10
2023-06-17T17:47:06.884Z,7.12
2023-06-17T17:49:41.705Z,7.34
2023-06-17T17:52:13.945Z,7.26
2023-06-17T17:55:00.660Z,7.09
2023-06-17T17:57:33.854Z,7.34
2023-06-17T18:00:06.054Z,7.32
2023-06-17T18:02:38.307Z,6.99
2023-06-17T18:05:14.110Z,7.24
2023-06-17T18:07:48.894Z,7.39
2023-06-17T18:10:22.221Z,7.64
2023-06-17T18:12:54.649Z,7.73
2023-06-17T18:15:26.856Z,7.49
2023-06-17T18:17:59.144Z,7.70
2023-06-17T18:20:33.991Z,7.69
2023-06-17T18:23:06.369Z,7.59
2023-06-17T18:25:38.798Z,7.87
2023-06-17T18:28:11.097Z,8.04
2023-06-17T18:30:44.208Z,8.01
2023-06-17T18:33:16.607Z,8.17
2023-06-17T18:35:51.421Z,7.77
2023-06-17T18:38:23.727Z,7.89
2023-06-17T18:40:56.012Z,7.66
2023-06-17T18:43:28.230Z,7.81
2023-06-17T18:46:00.558Z,7.78
2023-06-17T18:48:33.263Z,7.71
2023-06-17T18:51:08.323Z,7.90
2023-06-17T18:53:41.037Z,7.82
2023-06-17T18:56:13.445Z,7.66
2023-06-17T18:58:45.920Z,7.73
2023-06-17T19:01:18.225Z,7.26
2023-06-17T19:03:50.836Z,7.75
2023-06-17T19:06:25.729Z,7.62
2023-06-17T19:08:57.991Z,8.03
2023-06-17T19:11:30.213Z,8.84
2023-06-17T19:14:09.868Z,8.52
2023-06-17T19:16:42.277Z,8.33
2023-06-17T19:19:14.605Z,8.01
2023-06-17T19:21:49.439Z,8.02
2023-06-17T19:24:22.156Z,8.01
2023-06-17T19:26:54.545Z,8.02
2023-06-17T19:29:26.751Z,7.89
2023-06-17T19:31:59.626Z,7.78
2023-06-17T19:34:31.814Z,7.74
2023-06-17T19:37:06.765Z,7.74
2023-06-17T19:39:39.017Z,7.76
2023-06-17T19:42:11.588Z,7.85
2023-06-17T19:44:44.363Z,7.73
2023-06-17T19:47:18.024Z,7.88
2023-06-17T19:49:50.185Z,7.98
2023-06-17T19:52:25.164Z,8.10
2023-06-17T19:54:58.229Z,8.09
2023-06-17T19:57:33.009Z,8.10
2023-06-17T20:00:05.322Z,8.29
2023-06-17T20:02:37.857Z,8.59
2023-06-17T20:05:12.604Z,8.56
2023-06-17T20:07:47.687Z,8.36
2023-06-17T20:10:20.247Z,9.27
2023-06-17T20:12:58.661Z,8.51
2023-06-17T20:15:31.081Z,8.70
2023-06-17T20:18:03.425Z,9.12
2023-06-17T20:20:35.774Z,8.92
2023-06-17T20:23:11.161Z,9.28
2023-06-17T20:25:43.649Z,9.04
2023-06-17T20:28:16.009Z,9.15
2023-06-17T20:30:48.343Z,9.55
2023-06-17T20:33:20.599Z,9.32
2023-06-17T20:35:55.061Z,9.52
2023-06-17T20:38:29.884Z,8.91
2023-06-17T20:41:02.705Z,9.20
2023-06-17T20:43:35.562Z,9.26
2023-06-17T20:46:10.856Z,9.20
2023-06-17T20:48:43.136Z,9.31
2023-06-17T20:51:15.326Z,9.19
2023-06-17T20:53:50.123Z,8.79
2023-06-17T20:56:23.210Z,9.03
2023-06-17T20:58:56.891Z,9.21
2023-06-17T21:01:29.172Z,9.48
2023-06-17T21:04:01.662Z,9.28
2023-06-17T21:06:35.057Z,9.29
2023-06-17T21:09:10.361Z,9.24
2023-06-17T21:11:42.687Z,9.67
2023-06-17T21:14:14.993Z,9.01
2023-06-17T21:16:47.507Z,8.96
2023-06-17T21:19:19.803Z,10.14
2023-06-17T21:21:51.996Z,10.93
2023-06-17T21:24:26.913Z,10.95
2023-06-17T21:26:59.353Z,10.81
2023-06-17T21:29:31.595Z,10.99
2023-06-17T21:32:03.813Z,10.26
2023-06-17T21:34:36.147Z,10.39
2023-06-17T21:37:09.009Z,10.40
2023-06-17T21:39:43.776Z,10.75
2023-06-17T21:42:16.047Z,10.39
2023-06-17T21:44:48.338Z,10.23
2023-06-17T21:47:21.144Z,10.69
2023-06-17T21:49:53.508Z,11.06
2023-06-17T21:52:25.816Z,10.89
2023-06-17T21:55:00.683Z,10.21
2023-06-17T21:57:33.224Z,10.71
2023-06-17T22:00:06.871Z,10.20
2023-06-17T22:02:39.185Z,10.74
2023-06-17T22:05:12.045Z,10.75
2023-06-17T22:07:44.528Z,10.80
2023-06-17T22:10:19.511Z,10.69
2023-06-17T22:12:51.952Z,10.86
2023-06-17T22:15:24.192Z,10.55
2023-06-17T22:17:57.207Z,10.78
2023-06-17T22:20:29.484Z,11.16
2023-06-17T22:23:01.690Z,11.24
2023-06-17T22:25:36.495Z,11.60
2023-06-17T22:28:08.927Z,11.49
2023-06-17T22:30:41.259Z,11.29
2023-06-17T22:33:13.478Z,10.75
2023-06-17T22:35:46.092Z,10.90
2023-06-17T22:38:18.300Z,11.34
2023-06-17T22:40:53.560Z,11.16
2023-06-17T22:43:25.797Z,10.96
2023-06-17T22:45:58.145Z,10.49
2023-06-17T22:48:30.349Z,10.56
2023-06-17T22:51:02.968Z,10.14
2023-06-17T22:53:35.621Z,9.97
2023-06-17T22:56:10.575Z,9.72
2023-06-17T22:58:42.777Z,9.56
2023-06-17T23:01:15.020Z,9.67
2023-06-17T23:03:47.319Z,9.30
2023-06-17T23:06:19.779Z,9.81
2023-06-17T23:08:52.040Z,9.76
2023-06-17T23:11:26.833Z,10.00
2023-06-17T23:13:59.094Z,10.06
2023-06-17T23:16:31.610Z,9.77
2023-06-17T23:19:03.901Z,9.95
2023-06-17T23:21:38.065Z,10.13
2023-06-17T23:24:10.517Z,9.96
2023-06-17T23:26:46.053Z,9.76
2023-06-17T23:29:18.680Z,10.06
2023-06-17T23:31:51.769Z,10.14
2023-06-17T23:34:24.430Z,10.20
2023-06-17T23:36:56.912Z,10.34
2023-06-17T23:39:29.210Z,9.93
2023-06-17T23:42:04.058Z,9.97
2023-06-17T23:44:36.274Z,10.70
2023-06-17T23:47:08.757Z,10.76
2023-06-17T23:49:42.101Z,10.78
2023-06-17T23:52:14.981Z,10.91
2023-06-17T23:54:47.213Z,11.47
2023-06-17T23:57:22.282Z,11.41
2023-06-17T23:59:54.464Z,11.48
